Ashland, Maine
Current Conditions -  °F | °C
As of 1:55 AM on Sunday 23 Nov 2014 (Local Time) from KPQI Reporting Station
Overcast Overcast  
Wind Chill: 34°   Ceiling: 2600
Heat Index: 34°   Visibility: 10mi
Dew Point: 25°   Wind: 3mph
Humidity: 70%   Direction: 250°WSW
Pressure: 29.79"   Gusts: NA
Location:  46.63°N, 68.41°W
Report Text: KPQI 230655Z AUTO 25003KT 10SM BKN026 BKN033 OVC050 01/M04 A2979 RMK AO1
Loading
Personal Weather Stations






























Interactive Weather Map New forecast layout! Learn more

10-Day Weather Forecast

Advertisements
Track Severe Weather on mobile